Time;durP1;ratioP1;P1;durP2;ratioP2;P2;SDS_P1;SDS_P2;PMS_P1;PMS_P2;Temp;Humidity;BMP_temperature;BMP_pressure;BME280_temperature;BME280_humidity;BME280_pressure;Samples;Min_cycle;Max_cycle;Signal;HPM_P1;HPM_P2
2023/05/08 00:01:42;;;;;;;17.12;2.83;;;;;;;9.99;43.75;100695.13;1777802;80;21272;-79
2023/05/08 00:04:49;;;;;;;9.75;1.70;;;;;;;10.05;43.57;100692.25;1778511;80;21828;-79
2023/05/08 00:08:00;;;;;;;2.52;1.72;;;;;;;10.08;43.43;100700.12;1774628;80;21846;-79
2023/05/08 00:11:02;;;;;;;12.43;1.75;;;;;;;10.10;43.33;100702.17;1770830;81;21185;-78
2023/05/08 00:14:07;;;;;;;5.72;1.70;;;;;;;10.17;43.17;100696.92;1771200;81;21724;-79
2023/05/08 00:17:13;;;;;;;2.25;1.62;;;;;;;10.12;43.37;100700.66;1771149;81;21217;-79
2023/05/08 00:20:19;;;;;;;2.22;1.40;;;;;;;10.12;43.38;100703.40;1770478;81;21264;-79
2023/05/08 00:23:24;;;;;;;4.08;1.45;;;;;;;10.29;43.00;100700.23;1771036;81;21177;-79
2023/05/08 00:26:30;;;;;;;4.47;1.60;;;;;;;10.31;42.89;100697.70;1771104;81;21767;-79
2023/05/08 00:29:35;;;;;;;4.33;1.92;;;;;;;10.32;43.18;100708.13;1771136;81;21177;-79
2023/05/08 00:32:40;;;;;;;1.77;1.47;;;;;;;10.32;43.27;100693.94;1770056;81;21178;-79
2023/05/08 00:35:46;;;;;;;2.58;1.50;;;;;;;10.26;43.33;100702.81;1770281;81;21217;-79
2023/05/08 00:38:52;;;;;;;5.15;1.60;;;;;;;10.31;43.53;100705.05;1771117;81;21161;-79
2023/05/08 00:41:57;;;;;;;1.80;1.50;;;;;;;10.41;43.58;100710.72;1770604;81;21213;-79
2023/05/08 00:45:03;;;;;;;6.17;2.00;;;;;;;10.39;43.47;100701.80;1769655;81;21170;-79
2023/05/08 00:48:09;;;;;;;3.55;1.90;;;;;;;10.53;43.60;100706.30;1769650;81;21182;-79
2023/05/08 00:51:15;;;;;;;2.77;1.52;;;;;;;10.54;43.56;100701.17;1770040;81;21217;-79
2023/05/08 00:54:15;;;;;;;3.25;1.60;;;;;;;10.69;43.01;100700.89;1771068;81;21182;-79
2023/05/08 00:57:08;;;;;;;11.90;1.50;;;;;;;10.67;43.28;100708.39;1771467;81;21174;-79
2023/05/08 01:00:13;;;;;;;6.00;1.98;;;;;;;10.52;43.67;100709.55;1770432;81;21209;-79
2023/05/08 01:03:19;;;;;;;2.65;1.52;;;;;;;10.60;43.47;100693.69;1770005;81;21760;-79
2023/05/08 01:06:26;;;;;;;5.17;2.08;;;;;;;10.73;43.29;100698.16;1770333;81;21240;-79
2023/05/08 01:09:32;;;;;;;2.55;1.37;;;;;;;9.33;46.07;100703.92;1769882;81;21225;-79
2023/05/08 01:12:51;;;;;;;1.57;1.40;;;;;;;9.59;46.03;100705.80;1769638;81;21240;-79
2023/05/08 01:16:08;;;;;;;4.85;1.70;;;;;;;9.66;45.79;100709.11;1770947;81;21185;-79
2023/05/08 01:19:46;;;;;;;4.15;1.55;;;;;;;9.74;45.78;100702.86;1765191;81;21158;-79
2023/05/08 01:23:06;;;;;;;3.25;1.85;;;;;;;9.71;45.86;100704.53;1770593;81;21214;-79
2023/05/08 01:26:20;;;;;;;5.95;1.50;;;;;;;9.77;45.77;100706.61;1703587;80;21182;-78
2023/05/08 01:29:35;;;;;;;4.50;1.95;;;;;;;9.56;45.70;100699.32;1769828;81;21343;-79
2023/05/08 01:32:47;;;;;;;3.40;1.62;;;;;;;9.71;45.44;100695.83;1769741;81;21165;-79
2023/05/08 01:35:57;;;;;;;4.60;1.70;;;;;;;9.83;45.06;100692.30;1770693;81;21217;-79
2023/05/08 01:39:41;;;;;;;3.65;1.60;;;;;;;9.89;45.00;100703.96;1771121;81;22466;-79
2023/05/08 01:43:14;;;;;;;3.87;1.65;;;;;;;9.98;44.54;100709.82;1770517;81;21213;-79
2023/05/08 01:46:25;;;;;;;9.13;1.80;;;;;;;9.89;44.65;100709.94;1760575;81;21767;-78
2023/05/08 01:49:34;;;;;;;3.00;1.65;;;;;;;10.08;44.55;100710.20;1771082;81;21216;-78
2023/05/08 01:52:54;;;;;;;4.10;2.00;;;;;;;10.04;44.80;100703.36;1769494;81;21213;-78
2023/05/08 01:56:04;;;;;;;4.53;1.77;;;;;;;9.96;45.00;100707.74;1772091;81;21701;-79
2023/05/08 01:59:10;;;;;;;3.27;1.67;;;;;;;10.09;44.94;100707.81;1771714;81;21186;-78
2023/05/08 02:02:16;;;;;;;3.65;1.55;;;;;;;10.10;45.00;100712.25;1771032;81;21169;-79
2023/05/08 02:05:21;;;;;;;8.78;1.80;;;;;;;10.21;44.75;100707.89;1762827;81;21796;-78
2023/05/08 02:08:27;;;;;;;2.45;1.62;;;;;;;10.13;44.78;100710.58;1769624;81;21161;-79
2023/05/08 02:11:33;;;;;;;7.40;1.80;;;;;;;10.10;45.09;100714.98;1782518;80;21247;-79
2023/05/08 02:14:40;;;;;;;7.22;1.50;;;;;;;10.11;44.88;100720.28;1784726;80;21752;-79
2023/05/08 02:17:48;;;;;;;4.50;1.95;;;;;;;9.87;45.47;100712.81;1784689;80;21505;-79
2023/05/08 02:20:55;;;;;;;3.35;1.85;;;;;;;9.84;45.61;100709.06;1784662;80;21185;-79
2023/05/08 02:24:02;;;;;;;5.10;1.70;;;;;;;9.94;45.12;100714.41;1783912;80;21205;-79
2023/05/08 02:27:01;;;;;;;1.72;1.50;;;;;;;9.88;45.52;100726.84;1779290;80;21499;-79
2023/05/08 02:30:05;;;;;;;6.87;2.15;;;;;;;9.99;45.32;100729.29;1691004;83;21799;-79
2023/05/08 02:33:11;;;;;;;5.72;1.80;;;;;;;9.91;45.07;100720.19;1712405;83;21205;-79
2023/05/08 02:36:19;;;;;;;2.52;1.92;;;;;;;10.04;44.80;100720.61;1712476;83;21181;-79
2023/05/08 02:39:24;;;;;;;4.08;1.77;;;;;;;10.20;44.63;100721.18;1712562;83;21208;-79
2023/05/08 02:42:29;;;;;;;3.17;1.85;;;;;;;9.82;45.38;100721.16;1697432;84;21846;-79
2023/05/08 02:45:37;;;;;;;2.47;1.85;;;;;;;9.69;45.69;100732.02;1708463;84;21181;-79
2023/05/08 02:49:04;;;;;;;3.72;1.70;;;;;;;9.68;45.37;100728.06;1708457;84;21787;-79
2023/05/08 02:52:23;;;;;;;3.02;1.77;;;;;;;9.85;45.17;100727.67;1707986;84;21221;-79
2023/05/08 02:55:56;;;;;;;3.08;1.67;;;;;;;9.91;45.32;100718.82;1722438;82;21224;-79
2023/05/08 02:59:22;;;;;;;3.67;1.87;;;;;;;9.93;45.20;100726.36;1710845;82;21241;-79
2023/05/08 03:02:44;;;;;;;3.80;1.50;;;;;;;10.02;45.10;100728.60;1744704;82;21232;-79
2023/05/08 03:05:58;;;;;;;2.22;1.60;;;;;;;10.01;45.06;100709.13;1744730;82;21185;-79
2023/05/08 03:09:03;;;;;;;5.83;1.62;;;;;;;9.90;44.97;100701.56;1744829;82;21177;-79
2023/05/08 03:12:11;;;;;;;9.78;1.95;;;;;;;9.68;45.33;100701.60;1746435;81;21213;-79
2023/05/08 03:15:24;;;;;;;3.62;1.85;;;;;;;9.94;44.79;100709.80;1746826;82;21264;-79
2023/05/08 03:18:41;;;;;;;3.12;1.42;;;;;;;9.94;44.30;100707.58;1728885;83;21196;-79
2023/05/08 03:21:46;;;;;;;3.58;1.60;;;;;;;9.94;44.67;100715.77;1716361;83;21204;-79
2023/05/08 03:24:52;;;;;;;2.58;1.55;;;;;;;9.99;44.31;100716.99;1746557;82;21264;-79
2023/05/08 03:27:59;;;;;;;3.52;1.60;;;;;;;10.10;44.55;100724.55;1748155;82;21236;-79
2023/05/08 03:31:06;;;;;;;5.28;1.62;;;;;;;10.08;44.33;100719.77;1728898;83;21204;-79
2023/05/08 03:34:13;;;;;;;5.20;1.87;;;;;;;10.10;44.31;100720.45;1717440;83;21845;-79
2023/05/08 03:37:20;;;;;;;2.87;1.42;;;;;;;10.12;43.93;100727.48;1721631;82;21193;-79
2023/05/08 03:40:25;;;;;;;5.47;1.80;;;;;;;10.28;44.04;100719.89;1748200;82;21221;-79
2023/05/08 03:43:31;;;;;;;2.75;1.27;;;;;;;10.38;43.76;100733.43;1728910;83;21200;-79
2023/05/08 03:46:38;;;;;;;5.75;1.90;;;;;;;10.43;44.01;100733.79;1717688;83;21466;-79
2023/05/08 03:49:38;;;;;;;2.27;1.50;;;;;;;10.55;43.55;100727.52;1747814;82;21184;-79
2023/05/08 03:52:45;;;;;;;7.17;1.60;;;;;;;10.53;43.40;100729.03;1748088;82;21272;-79
2023/05/08 03:55:50;;;;;;;5.72;1.60;;;;;;;10.40;43.43;100729.52;1727689;83;21203;-79
2023/05/08 03:59:09;;;;;;;2.37;1.42;;;;;;;10.41;43.35;100742.17;1717735;83;21196;-78
2023/05/08 04:02:32;;;;;;;2.75;1.70;;;;;;;10.55;43.31;100731.63;1747676;82;21244;-78
2023/05/08 04:05:43;;;;;;;2.98;1.77;;;;;;;10.58;43.19;100743.58;1747140;82;21189;-79
2023/05/08 04:08:58;;;;;;;6.80;1.90;;;;;;;10.59;43.35;100738.48;1728436;83;21271;-79
2023/05/08 04:12:21;;;;;;;2.35;1.52;;;;;;;10.68;42.38;100740.19;1713503;83;21296;-78
2023/05/08 04:15:35;;;;;;;3.95;1.80;;;;;;;10.75;42.62;100742.10;1770039;81;21256;-78
2023/05/08 04:18:43;;;;;;;1.70;1.52;;;;;;;10.78;43.06;100738.19;1769695;81;21724;-79
2023/05/08 04:21:50;;;;;;;3.27;1.32;;;;;;;10.74;42.91;100739.03;1735281;82;21178;-79
2023/05/08 04:24:56;;;;;;;2.77;1.55;;;;;;;11.08;42.68;100735.33;1769886;81;22428;-78
2023/05/08 04:28:02;;;;;;;3.60;1.85;;;;;;;11.00;42.43;100734.79;1771002;81;21205;-79
2023/05/08 04:31:07;;;;;;;3.27;1.72;;;;;;;11.25;42.10;100734.84;1736583;82;21181;-79
2023/05/08 04:34:13;;;;;;;2.87;1.62;;;;;;;11.24;41.79;100724.89;1752910;81;21763;-80
2023/05/08 04:37:35;;;;;;;2.85;1.82;;;;;;;11.25;41.85;100730.22;1769899;81;21232;-79
2023/05/08 04:40:41;;;;;;;4.90;1.65;;;;;;;11.29;41.58;100726.59;1770845;81;21752;-79
2023/05/08 04:43:47;;;;;;;5.67;1.90;;;;;;;11.31;41.71;100733.30;1771158;81;21240;-79
2023/05/08 04:46:48;;;;;;;3.70;1.40;;;;;;;11.17;41.10;100749.89;1771137;81;21767;-79
2023/05/08 04:49:54;;;;;;;6.40;1.70;;;;;;;11.24;41.11;100738.58;1770962;81;21251;-79
2023/05/08 04:53:01;;;;;;;9.53;2.52;;;;;;;11.06;41.67;100733.28;1770863;81;21755;-79
2023/05/08 04:56:08;;;;;;;5.67;1.60;;;;;;;11.07;41.69;100734.14;1735680;82;21186;-79
2023/05/08 04:59:14;;;;;;;9.58;1.85;;;;;;;11.08;41.82;100732.59;1770877;81;21264;-79
2023/05/08 05:02:18;;;;;;;11.60;1.60;;;;;;;10.95;41.69;100739.91;1770898;81;21756;-79
2023/05/08 05:05:24;;;;;;;5.30;1.52;;;;;;;10.97;41.99;100742.51;1771328;81;21224;-79
2023/05/08 05:08:30;;;;;;;4.33;1.82;;;;;;;11.07;42.04;100736.88;1769489;81;21173;-79
2023/05/08 05:11:36;;;;;;;5.22;1.82;;;;;;;11.14;42.11;100755.69;1769516;81;21184;-79
2023/05/08 05:14:43;;;;;;;5.58;1.75;;;;;;;11.22;41.62;100733.80;1799907;79;21235;-79
2023/05/08 05:17:50;;;;;;;3.12;1.70;;;;;;;11.30;41.54;100739.81;1796900;79;21157;-79
2023/05/08 05:20:58;;;;;;;6.15;2.50;;;;;;;11.42;41.54;100751.59;1778904;79;21161;-79
2023/05/08 05:24:04;;;;;;;5.58;1.72;;;;;;;11.54;41.58;100751.27;1795113;79;21148;-78
2023/05/08 05:27:09;;;;;;;5.25;1.60;;;;;;;11.47;42.12;100745.09;1788353;79;21232;-78
2023/05/08 05:30:17;;;;;;;5.28;2.08;;;;;;;11.66;41.67;100737.55;1722856;82;21758;-78
2023/05/08 05:33:23;;;;;;;4.40;1.80;;;;;;;11.79;41.34;100733.77;1728205;82;21541;-79
2023/05/08 05:36:28;;;;;;;3.98;1.80;;;;;;;12.11;41.24;100736.13;1720207;81;21189;-80
2023/05/08 05:39:36;;;;;;;3.17;1.70;;;;;;;11.92;41.23;100731.90;1746167;81;21823;-79
2023/05/08 05:42:44;;;;;;;9.53;1.80;;;;;;;12.01;40.79;100752.27;1724761;81;21399;-79
2023/05/08 05:45:51;;;;;;;2.72;1.30;;;;;;;12.12;41.13;100730.45;1738739;81;21193;-79
2023/05/08 05:48:58;;;;;;;3.72;2.00;;;;;;;12.54;41.89;100749.33;1726021;82;21196;-78
2023/05/08 05:52:04;;;;;;;4.17;1.85;;;;;;;12.86;40.00;100711.77;1725812;82;21202;-78
2023/05/08 05:55:09;;;;;;;3.22;1.80;;;;;;;12.63;40.09;100739.69;1725736;81;21326;-79
2023/05/08 05:58:15;;;;;;;4.05;1.60;;;;;;;12.96;40.67;100730.23;1729485;82;21319;-79
2023/05/08 06:01:23;;;;;;;4.97;1.57;;;;;;;12.38;41.87;100737.06;1713932;82;21189;-80
2023/05/08 06:04:29;;;;;;;4.15;1.60;;;;;;;12.59;40.88;100757.55;1725192;82;21150;-79
2023/05/08 06:07:35;;;;;;;6.95;3.22;;;;;;;12.91;40.22;100739.53;1728176;81;21264;-79
2023/05/08 06:10:41;;;;;;;3.92;1.90;;;;;;;12.97;40.81;100741.54;1725510;82;21825;-80
2023/05/08 06:13:48;;;;;;;3.05;1.85;;;;;;;13.11;39.98;100740.43;1730135;81;21276;-79
2023/05/08 06:16:54;;;;;;;3.62;1.20;;;;;;;12.84;39.81;100743.16;1729523;82;21180;-79
2023/05/08 06:20:01;;;;;;;3.27;1.50;;;;;;;12.77;39.96;100761.73;1726510;82;21188;-78
2023/05/08 06:23:06;;;;;;;8.25;1.80;;;;;;;12.75;40.47;100762.94;1724266;82;21227;-79
2023/05/08 06:26:12;;;;;;;9.25;1.75;;;;;;;12.70;40.80;100766.25;1728085;82;21548;-79
2023/05/08 06:29:18;;;;;;;2.70;1.40;;;;;;;12.93;41.42;100759.41;1735412;82;21849;-79
2023/05/08 06:32:24;;;;;;;2.98;1.37;;;;;;;13.17;40.94;100756.17;1724799;82;21232;-79
2023/05/08 06:35:30;;;;;;;6.30;1.40;;;;;;;13.62;40.08;100776.47;1727391;81;21487;-80
2023/05/08 06:38:36;;;;;;;1.95;1.40;;;;;;;13.93;40.06;100749.73;1728661;82;22298;-79
2023/05/08 06:41:43;;;;;;;7.03;1.30;;;;;;;13.99;40.70;100755.84;1730450;82;21236;-80
2023/05/08 06:44:52;;;;;;;5.45;1.42;;;;;;;13.93;40.04;100748.35;1715457;82;21224;-80
2023/05/08 06:47:58;;;;;;;4.33;1.70;;;;;;;13.48;40.99;100760.27;1717596;82;21216;-79
2023/05/08 06:50:58;;;;;;;3.87;1.50;;;;;;;13.87;40.91;100760.08;1733837;82;21268;-79
2023/05/08 06:54:07;;;;;;;3.87;1.65;;;;;;;14.23;40.95;100762.12;1737973;82;21176;-79
2023/05/08 06:57:13;;;;;;;6.28;1.50;;;;;;;14.27;40.57;100761.55;1730770;82;22565;-79
2023/05/08 07:00:19;;;;;;;3.85;1.40;;;;;;;14.65;40.61;100760.62;1754980;80;22378;-79
2023/05/08 07:03:25;;;;;;;5.75;1.87;;;;;;;14.41;40.69;100764.50;1723603;81;22492;-81
2023/05/08 07:06:32;;;;;;;5.12;1.65;;;;;;;14.72;40.41;100767.89;1729891;81;21239;-79
2023/05/08 07:09:37;;;;;;;2.92;1.50;;;;;;;14.90;40.19;100766.64;1743272;82;21185;-80
2023/05/08 07:12:44;;;;;;;2.50;1.30;;;;;;;14.88;40.47;100770.13;1716205;82;21609;-79
2023/05/08 07:15:51;;;;;;;6.12;1.45;;;;;;;14.84;40.11;100782.05;1720941;82;21228;-79
2023/05/08 07:18:56;;;;;;;9.65;1.45;;;;;;;14.96;41.05;100781.88;1770892;79;21177;-79
2023/05/08 07:22:01;;;;;;;15.70;2.00;;;;;;;15.28;40.05;100775.55;1771258;79;21185;-80
2023/05/08 07:25:11;;;;;;;3.75;1.40;;;;;;;15.15;40.00;100776.77;1782101;79;21133;-80
2023/05/08 07:28:18;;;;;;;3.70;1.77;;;;;;;15.56;39.78;100768.72;1720875;81;21211;-80
2023/05/08 07:31:23;;;;;;;2.25;1.75;;;;;;;15.52;39.60;100766.88;1772032;79;21335;-80
2023/05/08 07:34:29;;;;;;;3.65;1.50;;;;;;;15.36;39.87;100764.92;1773031;79;21832;-80
2023/05/08 07:37:34;;;;;;;3.42;1.50;;;;;;;15.30;40.69;100767.95;1771202;79;21161;-80
2023/05/08 07:40:39;;;;;;;1.98;1.50;;;;;;;15.59;39.62;100787.64;1775363;79;21545;-80
2023/05/08 07:43:45;;;;;;;4.70;1.70;;;;;;;15.65;40.27;100773.61;1779699;79;21236;-80
2023/05/08 07:46:51;;;;;;;5.75;1.30;;;;;;;15.73;40.29;100773.48;1782272;79;21152;-80
2023/05/08 07:49:56;;;;;;;4.45;1.77;;;;;;;15.78;40.05;100765.46;1785058;79;21196;-80
2023/05/08 07:53:03;;;;;;;5.62;1.75;;;;;;;15.77;39.56;100770.66;1774839;79;22075;-80
2023/05/08 07:56:09;;;;;;;6.65;1.57;;;;;;;15.79;39.59;100744.56;1771302;79;21200;-81
2023/05/08 07:59:15;;;;;;;5.62;1.32;;;;;;;15.82;40.18;100752.98;1773870;79;21285;-80
2023/05/08 08:02:23;;;;;;;5.75;1.40;;;;;;;15.83;39.65;100765.18;1770537;79;21192;-80
2023/05/08 08:05:29;;;;;;;9.83;2.22;;;;;;;16.04;38.89;100771.20;1773649;79;21707;-80
2023/05/08 08:08:29;;;;;;;4.72;1.70;;;;;;;16.10;40.32;100771.77;1770629;79;21153;-80
2023/05/08 08:11:23;;;;;;;3.87;2.00;;;;;;;16.24;38.92;100770.48;1773901;79;21356;-79
2023/05/08 08:14:09;;;;;;;3.35;1.60;;;;;;;16.35;39.96;100783.17;1769700;79;21196;-81
2023/05/08 08:17:09;;;;;;;5.12;2.12;;;;;;;16.41;39.20;100783.42;1771511;79;21987;-81
2023/05/08 08:20:18;;;;;;;4.25;1.90;;;;;;;16.26;38.94;100779.40;1773626;79;21188;-81
2023/05/08 08:23:25;;;;;;;5.30;1.62;;;;;;;16.16;39.98;100789.42;1767648;81;21316;-79
2023/05/08 08:26:36;;;;;;;3.15;1.85;;;;;;;16.22;39.46;100778.94;1773767;79;21220;-80
2023/05/08 08:29:41;;;;;;;5.67;1.50;;;;;;;16.28;39.20;100780.06;1771893;79;21831;-79
2023/05/08 08:32:47;;;;;;;3.42;1.98;;;;;;;16.29;39.58;100770.73;1775723;79;21186;-79
2023/05/08 08:35:54;;;;;;;3.42;1.77;;;;;;;16.34;39.15;100766.83;1769693;81;21707;-80
2023/05/08 08:39:00;;;;;;;3.55;1.82;;;;;;;16.44;38.99;100761.78;1773495;79;21222;-80
2023/05/08 08:42:08;;;;;;;5.62;1.70;;;;;;;16.46;38.44;100781.75;1768639;81;21201;-80
2023/05/08 08:45:14;;;;;;;7.53;1.70;;;;;;;16.51;38.01;100776.99;1773990;79;21295;-79
2023/05/08 08:48:20;;;;;;;6.22;1.30;;;;;;;16.45;39.30;100783.34;1774676;79;21840;-81
2023/05/08 08:52:02;;;;;;;5.90;1.52;;;;;;;16.49;39.19;100779.12;1780299;79;21181;-80
2023/05/08 08:55:09;;;;;;;4.28;1.60;;;;;;;16.52;38.75;100782.34;1783135;79;21212;-79
2023/05/08 08:58:39;;;;;;;5.12;1.65;;;;;;;16.55;37.97;100772.77;1778031;79;21169;-79
2023/05/08 09:01:50;;;;;;;3.60;1.50;;;;;;;16.44;39.03;100766.45;1770302;79;21277;-79
2023/05/08 09:04:57;;;;;;;4.85;1.72;;;;;;;16.40;38.57;100770.14;1778070;79;21488;-80
2023/05/08 09:08:04;;;;;;;3.37;1.98;;;;;;;16.39;39.12;100764.31;1720158;82;21213;-79
2023/05/08 09:11:13;;;;;;;3.10;1.70;;;;;;;16.43;39.00;100750.95;1719571;82;21192;-80
2023/05/08 09:14:20;;;;;;;3.72;1.62;;;;;;;16.54;38.79;100751.21;1717520;82;21333;-80
2023/05/08 09:17:24;;;;;;;8.10;1.90;;;;;;;16.58;38.55;100760.80;1771342;79;22491;-80
2023/05/08 09:20:31;;;;;;;4.37;2.00;;;;;;;16.57;39.04;100761.02;1770605;80;21153;-80
2023/05/08 09:23:36;;;;;;;3.05;1.80;;;;;;;16.58;38.26;100770.46;1772384;80;21185;-80
2023/05/08 09:26:42;;;;;;;6.75;1.80;;;;;;;16.57;38.20;100759.09;1774757;80;21220;-80
2023/05/08 09:32:30;;;;;;;3.65;1.87;;;;;;;16.64;38.69;100754.98;1845661;76;28116;-79
2023/05/08 09:35:44;;;;;;;4.80;1.75;;;;;;;16.65;38.51;100748.39;1827826;77;21200;-80
2023/05/08 09:38:50;;;;;;;7.10;1.60;;;;;;;16.57;38.42;100746.67;1823041;77;21154;-79
2023/05/08 09:42:09;;;;;;;11.35;1.77;;;;;;;16.62;38.63;100757.11;1826290;77;21844;-79
2023/05/08 09:45:17;;;;;;;5.25;2.00;;;;;;;16.69;38.19;100747.45;1764754;80;21184;-80
2023/05/08 09:48:22;;;;;;;6.55;1.60;;;;;;;16.67;37.83;100746.82;1771239;79;21228;-80
2023/05/08 09:51:31;;;;;;;7.33;1.60;;;;;;;16.78;38.07;100756.77;1767528;80;21216;-80
2023/05/08 09:54:37;;;;;;;2.65;1.87;;;;;;;16.81;37.90;100758.28;1750818;81;21220;-80
2023/05/08 09:57:47;;;;;;;2.50;1.42;;;;;;;16.82;37.48;100753.92;1765007;80;21177;-79
2023/05/08 10:00:53;;;;;;;6.70;1.92;;;;;;;16.89;37.61;100755.84;1755051;81;21279;-80
2023/05/08 10:03:52;;;;;;;5.53;2.02;;;;;;;16.87;36.85;100753.30;1752106;81;21203;-79
2023/05/08 10:07:06;;;;;;;7.20;1.75;;;;;;;16.99;37.04;100754.95;1751746;80;21200;-79
2023/05/08 10:10:13;;;;;;;3.83;1.52;;;;;;;17.10;35.56;100763.48;1753681;81;21249;-79
2023/05/08 10:13:20;;;;;;;5.22;1.55;;;;;;;17.09;35.92;100752.11;1753586;81;21184;-79
2023/05/08 10:16:26;;;;;;;8.95;1.50;;;;;;;17.08;36.55;100744.89;1750812;81;21216;-80
2023/05/08 10:19:21;;;;;;;4.72;1.35;;;;;;;17.13;37.05;100755.84;1749842;81;21212;-79
2023/05/08 10:22:26;;;;;;;4.22;1.50;;;;;;;17.19;36.38;100744.80;1749060;81;21239;-80
2023/05/08 10:25:33;;;;;;;2.90;1.52;;;;;;;17.32;36.75;100748.13;1752258;81;21275;-80
2023/05/08 10:29:14;;;;;;;4.47;1.50;;;;;;;17.40;34.53;100734.08;1745817;81;22281;-79
2023/05/08 10:32:20;;;;;;;4.72;1.52;;;;;;;17.38;36.00;100752.27;1735683;80;21232;-80
2023/05/08 10:35:25;;;;;;;5.35;1.80;;;;;;;17.38;34.99;100752.27;1736684;82;22329;-80
2023/05/08 10:38:33;;;;;;;2.55;1.57;;;;;;;17.49;33.97;100727.28;1740086;82;22201;-80
2023/05/08 10:41:38;;;;;;;7.80;1.90;;;;;;;17.52;34.89;100735.17;1761362;81;21213;-78
2023/05/08 10:44:45;;;;;;;2.98;1.37;;;;;;;17.53;34.50;100735.48;1797903;79;21189;-79
2023/05/08 10:48:11;;;;;;;4.37;1.20;;;;;;;17.57;34.79;100758.05;1792802;79;21248;-80
2023/05/08 10:51:23;;;;;;;2.90;1.27;;;;;;;17.49;33.74;100761.00;1799405;79;21226;-79
2023/05/08 10:55:17;;;;;;;5.22;1.45;;;;;;;17.34;34.17;100755.67;1797240;79;21173;-80
2023/05/08 10:58:31;;;;;;;6.00;1.87;;;;;;;17.39;35.45;100760.03;1798982;79;21185;-80
2023/05/08 11:01:36;;;;;;;10.23;1.67;;;;;;;17.63;34.54;100766.88;1782608;79;21248;-80
2023/05/08 11:04:42;;;;;;;5.12;1.47;;;;;;;17.84;33.37;100750.11;1799372;79;21185;-80
2023/05/08 11:08:06;;;;;;;2.75;1.32;;;;;;;17.85;32.34;100742.13;1792241;79;21224;-80
2023/05/08 11:11:18;;;;;;;9.90;1.65;;;;;;;17.60;32.06;100762.63;1796912;78;21227;-79
2023/05/08 11:14:24;;;;;;;3.17;1.32;;;;;;;17.36;33.24;100750.77;1794545;79;21424;-80
2023/05/08 11:17:31;;;;;;;3.20;1.62;;;;;;;17.45;34.12;100752.80;1786324;79;21201;-79
2023/05/08 11:21:07;;;;;;;2.75;1.42;;;;;;;17.62;33.15;100757.72;1795624;79;21197;-80
2023/05/08 11:24:18;;;;;;;6.10;1.57;;;;;;;17.71;32.36;100764.44;1788135;79;21755;-80
2023/05/08 11:27:24;;;;;;;2.00;1.47;;;;;;;17.54;32.41;100762.07;1781524;79;21189;-80
2023/05/08 11:30:42;;;;;;;2.37;1.50;;;;;;;17.72;33.16;100755.92;1787389;79;21185;-80
2023/05/08 11:33:48;;;;;;;3.50;1.60;;;;;;;17.66;32.74;100754.02;1794528;79;21283;-80
2023/05/08 11:37:08;;;;;;;13.65;1.82;;;;;;;17.52;33.74;100748.15;1796811;79;21715;-80
2023/05/08 11:40:16;;;;;;;;;;;;;;;17.39;33.84;100761.42;1802590;79;21283;-79
2023/05/08 11:43:34;;;;;;;4.10;1.15;;;;;;;17.00;34.29;100745.59;1761120;79;21120;-79
2023/05/08 11:46:49;;;;;;;9.05;1.27;;;;;;;17.09;33.43;100750.73;1772558;79;21157;-79
2023/05/08 11:49:54;;;;;;;4.37;1.42;;;;;;;17.27;34.33;100751.52;1794316;79;21224;-79
2023/05/08 11:53:00;;;;;;;12.50;1.40;;;;;;;17.69;33.52;100737.50;1757344;81;21184;-80
2023/05/08 11:56:07;;;;;;;1.87;1.35;;;;;;;17.86;32.31;100738.28;1794210;79;21153;-80
2023/05/08 11:59:13;;;;;;;4.08;1.60;;;;;;;17.90;31.56;100742.86;1790257;79;21236;-79
2023/05/08 12:02:20;;;;;;;3.05;1.35;;;;;;;17.61;32.00;100733.05;1768410;79;21240;-79
2023/05/08 12:05:34;;;;;;;3.15;1.25;;;;;;;17.40;33.18;100736.00;1782669;79;21206;-79
2023/05/08 12:08:39;;;;;;;4.03;1.50;;;;;;;17.61;33.12;100743.58;1751046;81;21181;-80
2023/05/08 12:11:46;;;;;;;2.77;1.22;;;;;;;17.58;32.95;100737.61;1753990;81;21171;-79
2023/05/08 12:14:58;;;;;;;6.22;1.70;;;;;;;17.36;32.33;100739.70;1781448;79;21145;-79
2023/05/08 12:18:07;;;;;;;;;;;;;;;17.67;32.50;100742.41;1797509;79;21191;-79
2023/05/08 12:21:14;;;;;;;2.95;1.95;;;;;;;17.92;31.71;100744.02;1798682;79;20397;-79
2023/05/08 12:24:25;;;;;;;3.58;1.60;;;;;;;17.91;31.55;100743.17;1797807;79;21170;-79
2023/05/08 12:27:27;;;;;;;4.53;1.50;;;;;;;17.74;31.90;100743.31;1789791;79;21221;-79
2023/05/08 12:30:32;;;;;;;4.55;1.32;;;;;;;17.38;31.76;100738.45;1789785;80;21150;-79
2023/05/08 12:33:39;;;;;;;1.75;1.20;;;;;;;17.53;31.92;100736.86;1782692;79;21251;-79
2023/05/08 12:36:45;;;;;;;3.77;1.57;;;;;;;17.67;32.39;100731.34;1806602;79;21303;-80
2023/05/08 12:39:51;;;;;;;5.53;1.30;;;;;;;17.53;32.14;100745.70;1807850;79;21164;-79
2023/05/08 12:42:57;;;;;;;4.03;1.40;;;;;;;17.60;31.83;100743.80;1807451;79;21235;-78
2023/05/08 12:46:02;;;;;;;5.33;1.30;;;;;;;17.56;31.61;100746.67;1791462;79;21153;-79
2023/05/08 12:49:11;;;;;;;5.25;1.47;;;;;;;17.66;32.61;100730.50;1778374;79;21268;-79
2023/05/08 12:52:18;;;;;;;4.78;1.60;;;;;;;17.81;32.41;100730.31;1801470;79;21185;-79
2023/05/08 12:55:33;;;;;;;5.53;1.05;;;;;;;17.85;32.16;100735.73;1773856;79;21196;-79
2023/05/08 12:58:40;;;;;;;4.62;1.50;;;;;;;17.84;30.54;100768.09;1808971;79;21243;-79
2023/05/08 13:01:45;;;;;;;3.60;1.45;;;;;;;17.56;30.98;100740.60;1810067;79;21248;-79
2023/05/08 13:04:50;;;;;;;6.47;1.40;;;;;;;17.49;30.86;100742.50;1808269;79;21220;-79
2023/05/08 13:07:58;;;;;;;4.17;1.35;;;;;;;17.52;31.55;100762.83;1808910;79;21180;-79
2023/05/08 13:11:04;;;;;;;10.55;1.67;;;;;;;17.55;32.05;100751.35;1811042;79;21259;-78
2023/05/08 13:14:10;;;;;;;6.58;1.65;;;;;;;17.51;31.84;100760.28;1809850;79;21224;-79
2023/05/08 13:17:15;;;;;;;3.33;1.80;;;;;;;17.23;32.34;100772.34;1809900;79;21169;-79
2023/05/08 13:20:22;;;;;;;2.17;1.10;;;;;;;17.31;32.53;100765.75;1807939;79;21216;-78
2023/05/08 13:23:27;;;;;;;7.95;1.35;;;;;;;17.33;32.84;100758.97;1809125;79;21165;-79
2023/05/08 13:26:32;;;;;;;4.87;1.60;;;;;;;17.39;32.63;100758.66;1809340;79;21192;-79
2023/05/08 13:29:39;;;;;;;11.48;1.65;;;;;;;17.40;31.90;100757.58;1810214;79;21255;-78
2023/05/08 13:32:46;;;;;;;5.62;1.45;;;;;;;17.22;32.68;100754.06;1809678;79;21178;-79
2023/05/08 13:35:52;;;;;;;6.50;1.37;;;;;;;17.22;32.70;100769.77;1808037;79;21193;-79
2023/05/08 13:38:58;;;;;;;2.55;1.50;;;;;;;17.23;32.95;100777.88;1811188;79;21774;-79
2023/05/08 13:42:05;;;;;;;10.58;1.55;;;;;;;17.11;32.73;100765.17;1811059;79;21275;-79
2023/05/08 13:45:14;;;;;;;7.87;1.50;;;;;;;17.13;33.26;100782.11;1810053;79;21181;-79
2023/05/08 13:48:12;;;;;;;3.05;1.30;;;;;;;16.92;32.73;100781.16;1809765;79;21720;-78
2023/05/08 13:51:19;;;;;;;7.03;2.15;;;;;;;16.88;32.94;100778.48;1809605;79;21189;-79
2023/05/08 13:54:24;;;;;;;4.10;1.62;;;;;;;16.78;33.42;100778.02;1810812;79;21577;-79
2023/05/08 13:57:30;;;;;;;4.25;1.52;;;;;;;16.81;34.37;100783.14;1811099;79;21176;-79
2023/05/08 14:00:35;;;;;;;5.70;1.80;;;;;;;16.76;34.50;100778.77;1809932;78;21255;-79
2023/05/08 14:03:41;;;;;;;6.05;1.60;;;;;;;16.75;33.76;100777.04;1809676;79;21165;-79
2023/05/08 14:06:48;;;;;;;5.67;1.55;;;;;;;16.83;34.79;100772.73;1811121;79;21161;-79
2023/05/08 14:09:53;;;;;;;10.60;1.47;;;;;;;16.97;34.15;100782.77;1811022;79;21787;-79
2023/05/08 14:12:59;;;;;;;5.03;1.40;;;;;;;17.00;33.38;100782.37;1808429;79;21252;-79
2023/05/08 14:16:06;;;;;;;2.80;1.17;;;;;;;16.97;32.40;100780.01;1809194;79;21227;-79
2023/05/08 14:19:13;;;;;;;9.13;1.65;;;;;;;16.93;33.22;100773.19;1808757;79;21176;-79
2023/05/08 14:22:18;;;;;;;4.42;1.70;;;;;;;16.82;34.47;100779.32;1810357;79;21184;-79
2023/05/08 14:25:23;;;;;;;9.03;2.40;;;;;;;16.69;35.06;100777.30;1810250;79;21184;-79
2023/05/08 14:28:29;;;;;;;3.20;1.45;;;;;;;16.43;36.70;100781.33;1787471;79;21743;-79
2023/05/08 14:31:34;;;;;;;4.53;1.50;;;;;;;16.29;35.83;100777.62;1779097;80;21333;-80
2023/05/08 14:34:39;;;;;;;4.65;1.87;;;;;;;16.16;35.57;100781.67;1778904;80;21212;-80
2023/05/08 14:37:45;;;;;;;13.50;2.58;;;;;;;16.21;35.58;100782.77;1768532;81;21208;-79
2023/05/08 14:40:50;;;;;;;8.55;1.80;;;;;;;16.18;35.34;100774.88;1771171;81;21224;-80